Station: Roxby Downs

  Atmospheric Gas Attenuation - ITU Rec 676-11   --------------- db/100km ---------------
Date Time Temp RH % AH g/m3 Dew Point Wind Direction Speed kph Gust kph Barometer mB Rainfall Since 9am 24GHz 47GHz 76GHz 122GHz 134GHz 241GHz
03 08:40 21.6 43 8.15 8.5 19 26 1017.5 0 18.3 23.2 34.7 90.8 84.1 289.4
03 08:30 21.4 43 8.06 8.3 22 30 1016.5 0 18.1 23.1 34.4 90.1 83.2 286.1
03 08:20 21.3 43 8.01 8.2 22 26 1016.7 0 18.0 23.1 34.3 89.8 82.7 284.5
03 08:10 20 46 7.95 8 19 24 1016.9 0 17.9 23.3 34.6 90.6 83.4 286.6
03 08:00 20.5 44 7.83 7.8 20 28 1016.6 0 17.6 23.0 34.0 88.9 81.4 279.8
03 07:50 20 45 7.78 7.7 22 26 1016.7 0 17.6 23.1 34.0 89.0 81.4 279.5
03 07:40 19.7 46 7.81 7.8 13 17 1016.7 0 17.6 23.2 34.2 89.6 82.0 281.8
03 07:30 19 47 7.66 7.4 17 24 1016.3 0 17.4 23.1 34.0 88.9 80.9 277.9
03 07:20 19 48 7.82 7.8 20 22 1016.3 0 17.7 23.4 34.5 90.4 82.8 284.6
03 07:10 18.9 49 7.94 8 22 26 1015.9 0 18.0 23.6 35.0 91.7 84.3 289.9
03 07:00 19 50 8.15 8.4 19 24 1015.5 0 18.4 23.8 35.7 93.6 86.8 298.3
03 06:50 19 51 8.31 8.6 19 20 1015.3 0 18.7 24.1 36.3 95.2 88.7 305.1
03 06:40 18.6 53 8.43 8.8 20 24 1015.3 0 19.0 24.4 36.9 96.8 90.6 311.8
03 06:30 18.6 55 8.75 9.4 19 24 1015.1 0 19.7 24.8 38.1 100.0 94.6 325.6
03 06:20 18.6 56 8.91 9.7 19 20 1015.1 0 20.0 25.1 38.7 101.6 96.5 332.6
03 06:10 18.6 57 9.07 9.9 20 26 1014.7 0 20.4 25.3 39.3 103.2 98.5 339.5
03 06:00 18.6 57 9.07 9.9 20 28 1014.7 0 20.4 25.3 39.3 103.2 98.5 339.5
03 05:50 18.7 58 9.29 10.3 17 22 1014.9 0 20.8 25.6 40.1 105.4 101.2 348.9
03 05:40 18.9 59 9.56 10.7 19 26 1014.6 0 21.4 26.0 41.1 107.9 104.3 359.9
03 05:30 18.9 59 9.56 10.7 22 33 1014.7 0 21.4 26.0 41.1 107.9 104.3 359.9
03 05:20 18.9 60 9.72 11 20 24 1014.4 0 21.7 26.2 41.7 109.5 106.4 367.0
03 05:00 18.9 61 9.88 11.2 22 33 1014.5 0 22.1 26.5 42.3 111.2 108.4 374.2
03 04:50 19 61 9.94 11.3 20 28 1014.3 0 22.2 26.6 42.5 111.6 109.0 376.4
03 04:40 19.1 61 10 11.4 24 30 1014.2 0 22.3 26.6 42.7 112.1 109.7 378.6
03 04:30 19.1 60 9.83 11.2 22 30 1014.2 0 21.9 26.3 42.0 110.3 107.5 371.0
03 04:20 19.2 60 9.89 11.3 22 26 1014 0 22.1 26.4 42.2 110.8 108.1 373.1
03 04:10 19.2 60 9.89 11.3 24 28 1014.2 0 22.1 26.4 42.2 110.8 108.1 373.2
03 04:00 19.3 59 9.79 11.1 24 35 1014.4 0 21.8 26.2 41.7 109.7 106.7 368.3
03 03:50 19.4 58 9.68 10.9 20 24 1014.2 0 21.6 26.0 41.2 108.4 105.2 362.9
03 03:40 19.6 57 9.62 10.9 24 30 1014.4 0 21.5 25.9 40.9 107.5 104.2 359.4
03 03:30 19.7 56 9.51 10.7 22 32 1014.5 0 21.2 25.7 40.5 106.3 102.6 354.1
03 03:20 19.8 55 9.39 10.5 26 30 1014.5 0 21.0 25.5 39.9 104.9 101.0 348.4
03 03:10 19.9 55 9.45 10.6 22 28 1014.5 0 21.1 25.5 40.1 105.4 101.6 350.6
03 03:00 20 53 9.16 10.1 24 33 1014.4 0 20.5 25.1 39.0 102.3 97.9 337.4
03 02:50 20.2 51 8.92 9.7 24 30 1014.5 0 20.0 24.6 38.0 99.7 94.7 326.3
03 02:40 20.4 49 8.67 9.3 26 30 1014.5 0 19.4 24.2 37.0 97.0 91.4 314.8
03 02:30 20.7 46 8.28 8.7 26 37 1014.7 0 18.6 23.6 35.4 92.8 86.4 297.3
03 02:20 20.9 44 8.01 8.2 20 24 1014.9 0 18.0 23.1 34.4 90.0 83.0 285.5
03 02:10 21.1 42 7.74 7.7 19 22 1015 0 17.4 22.7 33.3 87.3 79.7 273.7
03 02:00 21.2 42 7.78 7.8 24 32 1014.8 0 17.5 22.7 33.4 87.5 80.0 275.0
03 01:50 21.2 41 7.6 7.4 22 26 1014.6 0 17.1 22.5 32.8 85.8 77.9 267.6
03 01:40 21.2 41 7.6 7.4 30 35 1014.7 0 17.1 22.5 32.8 85.8 77.9 267.6
03 01:30 21.3 41 7.64 7.5 24 35 1014.8 0 17.2 22.5 32.9 86.1 78.3 269.0
03 01:20 21.3 41 7.64 7.5 28 32 1015 0 17.2 22.5 32.9 86.1 78.3 269.0
03 01:10 21.4 41 7.69 7.6 30 35 1015 0 17.3 22.5 33.0 86.5 78.8 270.7
03 01:00 21.5 41 7.73 7.7 30 39 1015.2 0 17.4 22.6 33.1 86.8 79.2 272.0
03 00:50 21.9 43 8.3 8.8 26 33 1015.3 0 18.6 23.3 35.0 91.7 85.4 293.9
03 00:40 22.1 44 8.59 9.3 24 33 1015.5 0 19.2 23.7 36.0 94.3 88.6 305.2
03 00:30 22.2 41 8.05 8.3 28 41 1015.6 0 18.0 22.9 34.0 89.0 82.2 282.7
03 00:20 22.4 40 7.94 8.1 22 28 1015.7 0 17.8 22.7 33.5 87.8 80.7 277.6
03 00:10 22.7 40 8.08 8.4 32 41 1015.7 0 18.1 22.8 33.9 88.8 82.0 282.2
03 00:00 23.3 39 8.15 8.6 28 41 1015.6 0 18.2 22.8 33.9 88.8 82.2 282.9
02 23:50 23.7 40 8.56 9.3 33 39 1015.9 0 19.0 23.2 35.2 92.2 86.5 298.1
02 23:40 24 43 9.35 10.7 24 35 1015.7 0 20.7 24.3 37.8 99.3 95.4 329.3
02 23:30 24.4 43 9.57 11 28 35 1015.6 0 21.1 24.5 38.4 100.9 97.5 336.7
02 23:20 24.8 44 10.02 11.7 19 32 1015.5 0 22.0 25.1 39.9 104.7 102.4 353.7
02 23:10 25 44 10.13 11.9 17 20 1015.5 0 22.3 25.2 40.2 105.6 103.4 357.5
02 23:00 25.3 44 10.3 12.2 24 32 1015.4 0 22.6 25.3 40.6 106.8 105.1 363.2
02 22:50 25.6 43 10.24 12.4 20 26 1015.5 0 22.4 25.2 40.3 105.8 104.0 359.4
02 22:40 26.3 44 10.89 13.1 26 30 1015.4 0 23.8 25.9 42.3 111.2 110.8 383.4
02 22:30 26.8 43 10.95 13.2 26 35 1015.2 0 23.9 25.9 42.2 111.1 110.8 383.5
02 22:20 27.5 41 10.85 13.1 32 35 1015.1 0 23.6 25.5 41.5 109.2 108.6 376.0
02 22:10 28.4 39 10.84 13.1 30 35 1014.9 0 23.5 25.2 41.0 107.8 107.3 371.4
02 22:00 29.1 32 9.24 10.7 24 35 1014.7 0 20.2 22.8 35.1 92.2 88.3 304.8
02 21:50 29.4 29 8.51 9.5 26 32 1014.6 0 18.7 21.8 32.6 85.5 80.0 276.0
02 21:40 29.6 29 8.61 9.7 24 28 1014.4 0 18.9 21.8 32.9 86.1 80.9 279.0
02 21:30 29.9 29 8.75 9.9 24 33 1014.2 0 19.2 21.9 33.2 87.0 82.1 283.2
02 21:20 30.2 29 8.89 10.2 26 32 1014.1 0 19.4 22.1 33.5 87.9 83.3 287.4
02 21:10 30.2 29 8.89 10.2 19 26 1014 0 19.4 22.1 33.5 87.9 83.3 287.4
02 21:00 30.4 28 8.68 9.8 22 32 1013.9 0 19.0 21.7 32.7 85.9 80.8 278.8
02 20:50 30.6 27 8.46 9.5 22 28 1013.8 0 18.5 21.4 32.0 83.8 78.3 270.0
02 20:40 30.7 26 8.19 9 20 24 1013.6 0 18.0 21.0 31.1 81.4 75.4 259.7
02 20:30 30.9 25 7.96 8.6 22 30 1013.5 0 17.5 20.7 30.3 79.2 72.8 250.7
02 20:20 31.1 25 8.05 8.8 24 30 1013.3 0 17.7 20.7 30.5 79.8 73.5 253.3
02 20:10 31.4 24 7.85 8.4 24 33 1013.1 0 17.2 20.4 29.7 77.8 71.2 245.2
02 20:00 31.8 24 8.02 8.7 28 37 1013.1 0 17.6 20.5 30.1 78.9 72.6 250.1
02 19:50 32.6 23 8.02 8.8 28 32 1012.9 0 17.5 20.4 29.8 78.1 71.9 247.7
02 19:40 33 23 8.19 9.1 26 32 1012.9 0 17.9 20.5 30.2 79.1 73.3 252.6
02 19:30 33.8 23 8.54 9.8 26 39 1012.7 0 18.5 20.7 31.0 81.2 76.1 262.5
02 19:20 34.5 20 7.71 8.3 22 32 1012.5 0 16.8 19.6 28.2 73.9 67.2 231.5
02 19:10 34.6 20 7.75 8.4 19 24 1012.3 0 16.9 19.6 28.3 74.1 67.5 232.5
02 19:00 34.9 20 7.87 8.6 20 28 1012.3 0 17.1 19.7 28.6 74.8 68.4 235.8
02 18:50 34.9 20 7.87 8.6 19 20 1012 0 17.1 19.7 28.6 74.8 68.4 235.8
02 18:40 35 20 7.91 8.7 24 26 1011.9 0 17.2 19.7 28.6 75.0 68.7 236.8
02 18:30 35.2 19 7.59 8.1 20 28 1011.8 0 16.6 19.3 27.6 72.3 65.5 225.4
02 18:20 35.4 20 8.08 9 19 24 1011.8 0 17.5 19.8 29.0 76.0 70.0 241.5
02 18:10 35.2 21 8.39 9.6 19 20 1011.8 0 18.2 20.2 30.0 78.6 73.3 252.8
02 18:00 35.7 19 7.79 8.5 24 33 1011.8 0 16.9 19.4 28.0 73.4 67.0 230.8
02 17:50 35.9 18 7.46 7.9 24 26 1011.8 0 16.3 19.0 27.0 70.7 63.7 219.2
02 17:40 35.9 18 7.46 7.9 26 32 1011.9 0 16.3 19.0 27.0 70.7 63.7 219.2
02 17:30 36 18 7.5 8 24 35 1011.9 0 16.3 19.0 27.1 70.9 64.0 220.3
02 17:20 35.7 19 7.79 8.5 22 28 1011.9 0 16.9 19.4 28.1 73.4 67.0 230.8
02 17:10 35.5 19 7.71 8.3 24 33 1011.9 0 16.8 19.4 27.9 73.0 66.4 228.7
02 17:00 36 19 7.92 8.7 24 35 1011.9 0 17.2 19.5 28.3 74.2 68.0 234.4
02 16:50 36 19 7.92 8.7 24 28 1011.9 0 17.2 19.5 28.3 74.2 68.0 234.4
02 16:40 35.8 21 8.66 10.1 26 30 1011.8 0 18.7 20.4 30.6 80.2 75.4 260.3
02 16:30 36.3 20 8.46 9.8 26 35 1011.8 0 18.3 20.1 29.8 78.1 73.0 251.9
02 16:20 36.7 18 7.77 8.5 28 33 1011.8 0 16.9 19.2 27.7 72.4 66.0 227.5
02 16:10 36.5 18 7.7 8.4 30 32 1011.8 0 16.7 19.1 27.5 72.0 65.5 225.7
02 16:00 36.5 20 8.55 9.9 28 41 1011.9 0 18.5 20.2 30.0 78.7 73.7 254.4

Last Refresh: 03-Dec-2021 08:53:01

Bureau of Meteorology